createdAt,value
2022-12-06T00:01:26.639Z,9.20
2022-12-06T00:03:56.112Z,9.20
2022-12-06T00:06:25.067Z,9.10
2022-12-06T00:08:52.679Z,9.10
2022-12-06T00:11:25.645Z,9.10
2022-12-06T00:13:57.543Z,9.10
2022-12-06T00:16:24.999Z,9.00
2022-12-06T00:18:52.169Z,8.90
2022-12-06T00:21:23.411Z,8.80
2022-12-06T00:23:54.650Z,8.80
2022-12-06T00:26:22.838Z,8.80
2022-12-06T00:28:53.564Z,8.80
2022-12-06T00:31:22.746Z,8.80
2022-12-06T00:33:50.427Z,8.80
2022-12-06T00:36:37.166Z,8.80
2022-12-06T00:39:07.685Z,8.80
2022-12-06T00:41:35.039Z,8.80
2022-12-06T00:44:02.069Z,8.80
2022-12-06T00:46:31.164Z,8.80
2022-12-06T00:49:00.203Z,8.80
2022-12-06T00:51:29.454Z,8.90
2022-12-06T00:53:56.516Z,8.90
2022-12-06T00:56:23.454Z,8.90
2022-12-06T00:58:50.498Z,8.90
2022-12-06T01:01:26.587Z,8.90
2022-12-06T01:03:56.503Z,8.90
2022-12-06T01:06:28.019Z,8.90
2022-12-06T01:08:57.016Z,8.90
2022-12-06T01:11:24.523Z,8.90
2022-12-06T01:13:52.815Z,8.90
2022-12-06T01:16:25.661Z,8.90
2022-12-06T01:18:55.476Z,8.90
2022-12-06T01:21:23.530Z,8.90
2022-12-06T01:23:50.811Z,8.90
2022-12-06T01:26:22.185Z,8.90
2022-12-06T01:28:49.380Z,8.90
2022-12-06T01:31:16.599Z,8.90
2022-12-06T01:33:44.235Z,8.90
2022-12-06T01:36:25.369Z,8.90
2022-12-06T01:38:54.812Z,8.80
2022-12-06T01:41:23.761Z,8.80
2022-12-06T01:43:51.632Z,8.80
2022-12-06T01:46:39.588Z,8.70
2022-12-06T01:49:12.471Z,8.70
2022-12-06T01:51:44.141Z,8.60
2022-12-06T01:54:13.835Z,8.60
2022-12-06T01:56:41.502Z,8.60
2022-12-06T01:59:10.359Z,8.60
2022-12-06T02:01:39.144Z,8.60
2022-12-06T02:04:07.172Z,8.50
2022-12-06T02:06:34.777Z,8.50
2022-12-06T02:09:06.116Z,8.40
2022-12-06T02:11:35.333Z,8.40
2022-12-06T02:14:11.121Z,8.30
2022-12-06T02:16:55.384Z,8.30
2022-12-06T02:19:53.091Z,8.30
2022-12-06T02:22:28.346Z,8.20
2022-12-06T02:25:25.429Z,8.30
2022-12-06T02:28:08.550Z,8.30
2022-12-06T02:31:12.867Z,8.30
2022-12-06T02:33:49.688Z,8.30
2022-12-06T02:36:49.189Z,8.30
2022-12-06T02:39:26.213Z,8.30
2022-12-06T02:42:20.476Z,8.30
2022-12-06T02:44:58.421Z,8.20
2022-12-06T02:47:31.646Z,8.20
2022-12-06T02:50:00.926Z,8.30
2022-12-06T02:52:30.840Z,8.30
2022-12-06T02:55:01.163Z,8.30
2022-12-06T02:57:45.363Z,8.30
2022-12-06T03:00:37.075Z,8.40
2022-12-06T03:03:31.647Z,8.40
2022-12-06T03:06:01.610Z,8.40
2022-12-06T03:09:04.715Z,8.40
2022-12-06T03:11:55.666Z,8.40
2022-12-06T03:14:25.887Z,8.40
2022-12-06T03:17:08.257Z,8.40
2022-12-06T03:19:38.748Z,8.40
2022-12-06T03:22:22.059Z,8.40
2022-12-06T03:24:51.217Z,8.40
2022-12-06T03:27:21.892Z,8.40
2022-12-06T03:29:53.515Z,8.40
2022-12-06T03:32:24.118Z,8.40
2022-12-06T03:34:54.065Z,8.40
2022-12-06T03:37:23.939Z,8.40
2022-12-06T03:40:12.421Z,8.40
2022-12-06T03:42:39.975Z,8.40
2022-12-06T03:45:09.490Z,8.40
2022-12-06T03:48:15.703Z,8.30
2022-12-06T03:50:53.000Z,8.30
2022-12-06T03:53:24.083Z,8.30
2022-12-06T03:55:51.018Z,8.30
2022-12-06T03:58:18.044Z,8.20
2022-12-06T04:00:45.398Z,8.20
2022-12-06T04:03:12.659Z,8.20
2022-12-06T04:05:39.702Z,8.20
2022-12-06T04:08:06.782Z,8.20
2022-12-06T04:10:34.041Z,8.20
2022-12-06T04:13:01.267Z,8.20
2022-12-06T04:15:37.496Z,8.20
2022-12-06T04:18:13.480Z,8.20
2022-12-06T04:21:08.109Z,8.20
2022-12-06T04:23:40.146Z,8.20
2022-12-06T04:26:10.144Z,8.20
2022-12-06T04:28:55.782Z,8.20
2022-12-06T04:31:42.396Z,8.20
2022-12-06T04:34:28.470Z,8.20
2022-12-06T04:37:13.980Z,8.20
2022-12-06T04:39:41.154Z,8.10
2022-12-06T04:42:27.203Z,8.10
2022-12-06T04:44:54.386Z,8.10
2022-12-06T04:47:21.537Z,8.10
2022-12-06T04:49:48.772Z,8.10
2022-12-06T04:52:16.309Z,8.10
2022-12-06T04:54:43.464Z,8.10
2022-12-06T04:57:15.296Z,8.10
2022-12-06T04:59:44.151Z,8.10
2022-12-06T05:02:14.148Z,8.10
2022-12-06T05:04:41.073Z,8.10
2022-12-06T05:07:08.629Z,8.10
2022-12-06T05:09:35.589Z,8.10
2022-12-06T05:12:02.549Z,8.10
2022-12-06T05:14:29.689Z,8.10
2022-12-06T05:16:56.658Z,8.10
2022-12-06T05:19:23.729Z,8.10
2022-12-06T05:21:50.711Z,8.10
2022-12-06T05:24:17.764Z,8.10
2022-12-06T05:26:44.716Z,8.00
2022-12-06T05:29:11.768Z,8.00
2022-12-06T05:31:38.815Z,8.00
2022-12-06T05:34:05.800Z,8.00
2022-12-06T05:36:32.762Z,8.00
2022-12-06T05:38:59.843Z,8.00
2022-12-06T05:41:26.881Z,8.00
2022-12-06T05:43:53.981Z,8.00
2022-12-06T05:46:20.962Z,8.00
2022-12-06T05:48:48.054Z,7.90
2022-12-06T05:51:15.050Z,8.00
2022-12-06T05:53:42.140Z,7.90
2022-12-06T05:56:11.555Z,7.90
2022-12-06T05:58:38.921Z,7.90
2022-12-06T06:01:07.470Z,7.90
2022-12-06T06:03:34.879Z,7.90
2022-12-06T06:06:03.115Z,7.90
2022-12-06T06:08:31.082Z,7.80
2022-12-06T06:10:58.642Z,7.80
2022-12-06T06:13:26.203Z,7.70
2022-12-06T06:15:53.242Z,7.70
2022-12-06T06:18:20.933Z,7.70
2022-12-06T06:20:49.855Z,7.70
2022-12-06T06:23:17.193Z,7.60
2022-12-06T06:25:44.281Z,7.60
2022-12-06T06:28:11.343Z,7.60
2022-12-06T06:30:38.521Z,7.60
2022-12-06T06:33:05.517Z,7.60
2022-12-06T06:35:32.499Z,7.60
2022-12-06T06:37:59.655Z,7.60
2022-12-06T06:40:26.888Z,7.50
2022-12-06T06:42:54.017Z,7.50
2022-12-06T06:45:26.791Z,7.60
2022-12-06T06:47:55.604Z,7.60
2022-12-06T06:50:22.672Z,7.60
2022-12-06T06:52:49.854Z,7.60
2022-12-06T06:55:16.991Z,7.60
2022-12-06T06:57:44.078Z,7.70
2022-12-06T07:00:11.881Z,7.70
2022-12-06T07:02:39.670Z,7.70
2022-12-06T07:05:07.397Z,7.70
2022-12-06T07:07:34.455Z,7.70
2022-12-06T07:10:01.719Z,7.70
2022-12-06T07:12:29.044Z,7.70
2022-12-06T07:14:56.069Z,7.70
2022-12-06T07:17:24.611Z,7.70
2022-12-06T07:19:51.842Z,7.80
2022-12-06T07:22:18.853Z,7.80
2022-12-06T07:24:52.042Z,7.80
2022-12-06T07:27:19.485Z,7.80
2022-12-06T07:29:46.468Z,7.80
2022-12-06T07:32:13.409Z,7.80
2022-12-06T07:34:40.407Z,7.80
2022-12-06T07:37:07.541Z,7.90
2022-12-06T07:39:34.437Z,7.80
2022-12-06T07:42:19.777Z,7.90
2022-12-06T07:45:02.539Z,7.80
2022-12-06T07:47:40.912Z,7.90
2022-12-06T07:50:15.990Z,7.90
2022-12-06T07:52:46.034Z,7.90
2022-12-06T07:55:13.834Z,7.90
2022-12-06T07:57:43.621Z,7.90
2022-12-06T08:00:14.762Z,7.90
2022-12-06T08:02:42.078Z,7.90
2022-12-06T08:05:09.594Z,7.90
2022-12-06T08:07:36.630Z,7.90
2022-12-06T08:10:04.783Z,7.90
2022-12-06T08:12:32.403Z,8.00
2022-12-06T08:15:00.211Z,7.90
2022-12-06T08:17:28.081Z,7.90
2022-12-06T08:19:55.135Z,8.00
2022-12-06T08:22:22.099Z,7.90
2022-12-06T08:24:49.087Z,7.90
2022-12-06T08:27:16.101Z,8.00
2022-12-06T08:29:45.364Z,8.00
2022-12-06T08:32:12.450Z,8.00
2022-12-06T08:34:39.593Z,8.00
2022-12-06T08:37:06.572Z,8.00
2022-12-06T08:39:33.620Z,8.00
2022-12-06T08:42:03.441Z,8.00
2022-12-06T08:44:32.576Z,8.10
2022-12-06T08:47:01.531Z,8.10
2022-12-06T08:49:29.836Z,8.10
2022-12-06T08:51:58.365Z,8.10
2022-12-06T08:54:26.421Z,8.10
2022-12-06T08:56:53.663Z,8.10
2022-12-06T08:59:21.317Z,8.10
2022-12-06T09:01:48.401Z,8.10
2022-12-06T09:04:15.746Z,8.20
2022-12-06T09:06:44.209Z,8.20
2022-12-06T09:09:13.019Z,8.20
2022-12-06T09:11:40.958Z,8.30
2022-12-06T09:14:15.208Z,8.30
2022-12-06T09:16:45.412Z,8.30
2022-12-06T09:19:13.895Z,8.30
2022-12-06T09:21:46.551Z,8.30
2022-12-06T09:24:15.999Z,8.30
2022-12-06T09:26:43.328Z,8.40
2022-12-06T09:29:10.928Z,8.40
2022-12-06T09:31:41.146Z,8.40
2022-12-06T09:34:09.602Z,8.40
2022-12-06T09:37:00.598Z,8.50
2022-12-06T09:39:35.456Z,8.50
2022-12-06T09:42:37.252Z,8.50
2022-12-06T09:45:07.228Z,8.50
2022-12-06T09:48:08.880Z,8.50
2022-12-06T09:51:03.395Z,8.60
2022-12-06T09:54:00.646Z,8.50
2022-12-06T09:56:40.901Z,8.60
2022-12-06T09:59:21.657Z,8.60
2022-12-06T10:02:00.498Z,8.60
2022-12-06T10:04:46.661Z,8.60
2022-12-06T10:07:25.074Z,8.70
2022-12-06T10:10:21.279Z,8.70
2022-12-06T10:13:00.441Z,8.70
2022-12-06T10:15:42.230Z,8.80
2022-12-06T10:18:35.517Z,8.80
2022-12-06T10:21:13.522Z,8.80
2022-12-06T10:24:13.645Z,8.90
2022-12-06T10:26:49.786Z,8.90
2022-12-06T10:29:34.098Z,8.90
2022-12-06T10:32:11.103Z,8.90
2022-12-06T10:35:10.744Z,9.00
2022-12-06T10:37:42.334Z,9.00
2022-12-06T10:40:26.407Z,9.10
2022-12-06T10:43:11.622Z,9.10
2022-12-06T10:46:08.470Z,9.10
2022-12-06T10:48:57.408Z,9.20
2022-12-06T10:51:48.733Z,9.20
2022-12-06T10:54:25.467Z,9.20
2022-12-06T10:56:54.979Z,9.30
2022-12-06T10:59:38.257Z,9.30
2022-12-06T11:02:26.662Z,9.30
2022-12-06T11:04:59.421Z,9.30
2022-12-06T11:07:49.439Z,9.40
2022-12-06T11:10:24.565Z,9.40
2022-12-06T11:13:13.768Z,9.50
2022-12-06T11:15:46.838Z,9.50
2022-12-06T11:18:17.407Z,9.50
2022-12-06T11:21:00.136Z,9.50
2022-12-06T11:23:30.058Z,9.60
2022-12-06T11:26:22.961Z,9.60
2022-12-06T11:29:09.984Z,9.70
2022-12-06T11:31:47.844Z,9.70
2022-12-06T11:34:29.280Z,9.80
2022-12-06T11:37:00.378Z,9.80
2022-12-06T11:39:29.423Z,9.80
2022-12-06T11:41:59.858Z,9.90
2022-12-06T11:44:36.260Z,9.90
2022-12-06T11:47:03.355Z,9.90
2022-12-06T11:49:35.170Z,10.00
2022-12-06T11:52:07.547Z,10.00
2022-12-06T11:54:44.412Z,10.00
2022-12-06T11:57:23.064Z,10.10
2022-12-06T12:00:14.233Z,10.10
2022-12-06T12:02:43.320Z,10.10
2022-12-06T12:05:30.854Z,10.10
2022-12-06T12:08:04.912Z,10.20
2022-12-06T12:10:39.373Z,10.20
2022-12-06T12:13:30.646Z,10.20
2022-12-06T12:16:15.670Z,10.30
2022-12-06T12:19:05.990Z,10.30
2022-12-06T12:21:42.327Z,10.30
2022-12-06T12:24:56.563Z,10.40
2022-12-06T12:27:36.167Z,10.40
2022-12-06T12:30:20.807Z,10.50
2022-12-06T12:32:50.458Z,10.40
2022-12-06T12:35:20.513Z,10.40
2022-12-06T12:37:58.831Z,10.40
2022-12-06T12:40:33.223Z,10.50
2022-12-06T12:43:04.781Z,10.50
2022-12-06T12:45:31.899Z,10.50
2022-12-06T12:48:22.353Z,10.50
2022-12-06T12:50:58.031Z,10.50
2022-12-06T12:53:32.202Z,10.60
2022-12-06T12:56:24.773Z,10.60
2022-12-06T12:58:55.122Z,10.60
2022-12-06T13:01:24.889Z,10.70
2022-12-06T13:03:57.631Z,10.80
2022-12-06T13:06:48.916Z,11.00
2022-12-06T13:09:38.561Z,11.20
2022-12-06T13:12:12.908Z,11.60
2022-12-06T13:14:44.917Z,12.10
2022-12-06T13:17:13.397Z,12.70
2022-12-06T13:19:48.767Z,13.20
2022-12-06T13:22:28.079Z,13.60
2022-12-06T13:25:04.556Z,13.80
2022-12-06T13:27:36.173Z,13.90
2022-12-06T13:30:22.461Z,14.00
2022-12-06T13:33:00.409Z,14.10
2022-12-06T13:35:34.997Z,14.20
2022-12-06T13:38:26.080Z,14.20
2022-12-06T13:40:55.866Z,14.10
2022-12-06T13:43:25.777Z,14.00
2022-12-06T13:46:09.519Z,13.90
2022-12-06T13:48:37.858Z,13.80
2022-12-06T13:51:11.348Z,13.80
2022-12-06T13:54:07.264Z,13.70
2022-12-06T13:56:34.163Z,13.60
2022-12-06T13:59:02.597Z,13.60
2022-12-06T14:01:46.561Z,13.70
2022-12-06T14:06:55.453Z,13.90
2022-12-06T14:09:24.006Z,14.20
2022-12-06T14:11:53.037Z,14.50
2022-12-06T14:14:21.724Z,14.80
2022-12-06T14:16:59.102Z,15.10
2022-12-06T14:19:28.883Z,15.20
2022-12-06T14:22:02.591Z,15.40
2022-12-06T14:24:39.248Z,15.60
2022-12-06T14:27:19.029Z,15.70
2022-12-06T14:30:14.669Z,15.80
2022-12-06T14:32:50.349Z,15.90
2022-12-06T14:35:21.327Z,15.90
2022-12-06T14:38:02.085Z,16.00
2022-12-06T14:40:58.930Z,16.00
2022-12-06T14:43:28.507Z,16.00
2022-12-06T14:45:57.411Z,16.10
2022-12-06T14:48:24.950Z,16.10
2022-12-06T14:50:59.184Z,16.20
2022-12-06T14:53:33.093Z,16.20
2022-12-06T14:56:04.885Z,16.10
2022-12-06T14:58:37.263Z,15.90
2022-12-06T15:01:23.144Z,15.50
2022-12-06T15:03:59.786Z,15.10
2022-12-06T15:06:29.284Z,14.80
2022-12-06T15:08:59.068Z,14.50
2022-12-06T15:11:47.399Z,14.20
2022-12-06T15:14:24.624Z,13.90
2022-12-06T15:17:04.658Z,13.70
2022-12-06T15:19:34.674Z,13.40
2022-12-06T15:22:03.374Z,13.30
2022-12-06T15:24:31.204Z,13.10
2022-12-06T15:26:58.245Z,12.90
2022-12-06T15:29:25.224Z,12.70
2022-12-06T15:31:54.320Z,12.60
2022-12-06T15:34:30.013Z,12.50
2022-12-06T15:37:22.300Z,12.30
2022-12-06T15:39:45.074Z,12.20
2022-12-06T15:42:20.452Z,12.10
2022-12-06T15:44:50.102Z,12.00
2022-12-06T15:47:19.839Z,12.00
2022-12-06T15:49:48.898Z,11.90
2022-12-06T15:52:17.677Z,11.80
2022-12-06T15:54:44.760Z,11.70
2022-12-06T15:57:11.783Z,11.70
2022-12-06T15:59:38.792Z,11.60
2022-12-06T16:02:17.265Z,11.50
2022-12-06T16:04:45.446Z,11.50
2022-12-06T16:07:18.542Z,11.40
2022-12-06T16:09:46.330Z,11.40
2022-12-06T16:12:13.312Z,11.40
2022-12-06T16:14:40.345Z,11.30
2022-12-06T16:17:07.390Z,11.30
2022-12-06T16:19:53.205Z,11.20
2022-12-06T16:22:40.176Z,11.20
2022-12-06T16:25:07.384Z,11.10
2022-12-06T16:27:34.300Z,11.10
2022-12-06T16:30:01.468Z,11.10
2022-12-06T16:32:28.473Z,11.00
2022-12-06T16:34:55.451Z,11.00
2022-12-06T16:37:22.419Z,11.00
2022-12-06T16:39:49.501Z,11.00
2022-12-06T16:42:16.425Z,10.90
2022-12-06T16:44:52.257Z,10.90
2022-12-06T16:49:47.794Z,10.80
2022-12-06T16:52:16.098Z,10.80
2022-12-06T16:54:43.771Z,10.80
2022-12-06T16:57:14.915Z,10.80
2022-12-06T16:59:43.078Z,10.70
2022-12-06T17:02:26.535Z,10.70
2022-12-06T17:04:54.001Z,10.70
2022-12-06T17:07:21.033Z,10.70
2022-12-06T17:09:47.956Z,10.60
2022-12-06T17:12:15.383Z,10.60
2022-12-06T17:14:42.928Z,10.60
2022-12-06T17:17:18.200Z,10.60
2022-12-06T17:19:45.248Z,10.50
2022-12-06T17:22:15.555Z,10.50
2022-12-06T17:24:42.885Z,10.50
2022-12-06T17:27:10.033Z,10.40
2022-12-06T17:29:37.232Z,10.40
2022-12-06T17:32:04.430Z,10.40
2022-12-06T17:34:31.485Z,10.40
2022-12-06T17:36:59.021Z,10.30
2022-12-06T17:39:26.822Z,10.30
2022-12-06T17:42:12.631Z,10.30
2022-12-06T17:44:40.018Z,10.30
2022-12-06T17:47:07.251Z,10.20
2022-12-06T17:49:36.107Z,10.20
2022-12-06T17:52:03.219Z,10.20
2022-12-06T17:54:30.498Z,10.20
2022-12-06T17:56:57.589Z,10.20
2022-12-06T17:59:30.315Z,10.20
2022-12-06T18:02:17.855Z,10.10
2022-12-06T18:04:47.251Z,10.10
2022-12-06T18:07:15.429Z,10.10
2022-12-06T18:09:42.598Z,10.10
2022-12-06T18:12:10.977Z,10.10
2022-12-06T18:14:38.022Z,10.10
2022-12-06T18:17:05.180Z,10.00
2022-12-06T18:19:32.392Z,10.00
2022-12-06T18:21:59.503Z,10.00
2022-12-06T18:24:30.553Z,10.00
2022-12-06T18:27:01.183Z,10.00
2022-12-06T18:29:28.223Z,10.00
2022-12-06T18:31:55.359Z,9.90
2022-12-06T18:34:22.900Z,9.90
2022-12-06T18:36:51.006Z,9.90
2022-12-06T18:39:25.029Z,9.90
2022-12-06T18:41:53.458Z,9.90
2022-12-06T18:44:20.643Z,9.80
2022-12-06T18:46:47.838Z,9.90
2022-12-06T18:49:15.245Z,9.80
2022-12-06T18:51:42.504Z,9.80
2022-12-06T18:54:10.752Z,9.70
2022-12-06T18:56:39.100Z,9.70
2022-12-06T18:59:08.646Z,9.70
2022-12-06T19:01:37.852Z,9.70
2022-12-06T19:04:06.781Z,9.70
2022-12-06T19:06:36.207Z,9.70
2022-12-06T19:09:07.835Z,9.60
2022-12-06T19:11:43.237Z,9.70
2022-12-06T19:14:10.313Z,9.60
2022-12-06T19:16:42.833Z,9.60
2022-12-06T19:19:16.254Z,9.60
2022-12-06T19:21:45.733Z,9.60
2022-12-06T19:24:16.009Z,9.50
2022-12-06T19:26:43.541Z,9.60
2022-12-06T19:29:10.905Z,9.50
2022-12-06T19:31:38.172Z,9.50
2022-12-06T19:34:05.383Z,9.50
2022-12-06T19:36:32.700Z,9.50
2022-12-06T19:39:06.261Z,9.50
2022-12-06T19:41:52.678Z,9.50
2022-12-06T19:44:19.683Z,9.40
2022-12-06T19:46:48.327Z,9.40
2022-12-06T19:49:17.598Z,9.40
2022-12-06T19:51:47.245Z,9.40
2022-12-06T19:54:23.794Z,9.40
2022-12-06T19:56:53.380Z,9.40
2022-12-06T19:59:22.264Z,9.40
2022-12-06T20:01:50.243Z,9.40
2022-12-06T20:04:21.026Z,9.40
2022-12-06T20:06:49.189Z,9.40
2022-12-06T20:09:17.535Z,9.30
2022-12-06T20:12:01.895Z,9.30
2022-12-06T20:14:32.860Z,9.30
2022-12-06T20:16:59.958Z,9.30
2022-12-06T20:19:27.124Z,9.30
2022-12-06T20:21:54.168Z,9.30
2022-12-06T20:24:22.424Z,9.30
2022-12-06T20:26:52.048Z,9.30
2022-12-06T20:29:20.139Z,9.30
2022-12-06T20:31:50.084Z,9.30
2022-12-06T20:34:17.704Z,9.20
2022-12-06T20:36:45.100Z,9.20
2022-12-06T20:39:21.963Z,9.20
2022-12-06T20:41:50.067Z,9.20
2022-12-06T20:44:18.387Z,9.20
2022-12-06T20:46:45.918Z,9.20
2022-12-06T20:49:13.248Z,9.20
2022-12-06T20:51:40.628Z,9.10
2022-12-06T20:54:07.889Z,9.10
2022-12-06T20:56:37.896Z,9.10
2022-12-06T20:59:07.053Z,9.10
2022-12-06T21:01:40.276Z,9.10
2022-12-06T21:04:07.979Z,9.10
2022-12-06T21:06:35.557Z,9.00
2022-12-06T21:09:02.766Z,9.00
2022-12-06T21:11:29.912Z,9.00
2022-12-06T21:13:58.100Z,8.90
2022-12-06T21:16:30.284Z,9.00
2022-12-06T21:19:05.738Z,8.90
2022-12-06T21:21:39.147Z,8.90
2022-12-06T21:24:11.203Z,8.90
2022-12-06T21:26:38.660Z,8.90
2022-12-06T21:29:05.734Z,8.80
2022-12-06T21:31:35.537Z,8.80
2022-12-06T21:34:02.962Z,8.80
2022-12-06T21:36:30.273Z,8.70
2022-12-06T21:38:58.457Z,8.70
2022-12-06T21:41:26.024Z,8.70
2022-12-06T21:43:53.290Z,8.80
2022-12-06T21:46:22.932Z,8.70
2022-12-06T21:48:55.443Z,8.70
2022-12-06T21:51:23.960Z,8.70
2022-12-06T21:53:51.226Z,8.70
2022-12-06T21:56:20.914Z,8.70
2022-12-06T21:58:48.814Z,8.70
2022-12-06T22:01:19.240Z,8.60
2022-12-06T22:03:50.717Z,8.60
2022-12-06T22:06:18.671Z,8.60
2022-12-06T22:08:47.027Z,8.60
2022-12-06T22:11:19.410Z,8.60
2022-12-06T22:13:47.879Z,8.60
2022-12-06T22:16:16.357Z,8.60
2022-12-06T22:18:46.066Z,8.60
2022-12-06T22:21:21.147Z,8.60
2022-12-06T22:23:48.668Z,8.60
2022-12-06T22:26:20.623Z,8.60
2022-12-06T22:28:48.574Z,8.60
2022-12-06T22:31:19.062Z,8.60
2022-12-06T22:33:47.084Z,8.50
2022-12-06T22:36:16.292Z,8.50
2022-12-06T22:38:43.619Z,8.50
2022-12-06T22:41:10.851Z,8.40
2022-12-06T22:43:37.958Z,8.50
2022-12-06T22:46:07.877Z,8.50
2022-12-06T22:48:44.453Z,8.40
2022-12-06T22:51:14.600Z,8.40
2022-12-06T22:53:43.701Z,8.40
2022-12-06T22:56:11.087Z,8.40
2022-12-06T22:58:38.370Z,8.40
2022-12-06T23:01:25.699Z,8.40
2022-12-06T23:03:53.734Z,8.40
2022-12-06T23:06:24.157Z,8.40
2022-12-06T23:08:52.483Z,8.40
2022-12-06T23:11:25.681Z,8.30
2022-12-06T23:13:53.716Z,8.30
2022-12-06T23:16:23.151Z,8.30
2022-12-06T23:18:51.054Z,8.30
2022-12-06T23:21:23.893Z,8.30
2022-12-06T23:23:53.121Z,8.20
2022-12-06T23:26:23.012Z,8.20
2022-12-06T23:28:50.789Z,8.20
2022-12-06T23:31:20.455Z,8.20
2022-12-06T23:33:51.540Z,8.20
2022-12-06T23:36:20.998Z,8.20
2022-12-06T23:38:48.887Z,8.20
2022-12-06T23:41:18.737Z,8.20
2022-12-06T23:43:46.221Z,8.10
2022-12-06T23:46:22.166Z,8.20
2022-12-06T23:48:50.603Z,8.10
2022-12-06T23:51:20.950Z,8.10
2022-12-06T23:53:53.762Z,8.10
2022-12-06T23:56:22.160Z,8.10
2022-12-06T23:58:50.557Z,8.10
